Walgett, Australia
Current Conditions -  °F | °C
As of 2:00 AM on Tuesday 23 Dec 2014 (Local Time) from YMOR Reporting Station
Overcast Overcast  
Wind Chill: 81°   Ceiling: 9300
Heat Index: 81°   Visibility: 6mi
Dew Point: 55°   Wind: 6mph
Humidity: 42%   Direction: 360°N
Pressure: 29.97"   Gusts: NA
Location:  30.02°S, 148.12°E
Report Text: YMOR 221500Z AUTO 36005KT 9999 // SCT069 BKN093 OVC120 27/13 Q1015
Loading
Personal Weather Stations






























Interactive Weather Map New forecast layout! Learn more

10-Day Weather Forecast

Advertisements
Track Severe Weather on mobile